createdAt,value
2018-12-31T00:01:57.512Z,98543.91
2018-12-31T00:04:27.909Z,98552.27
2018-12-31T00:06:58.475Z,98555.29
2018-12-31T00:09:28.982Z,98543.80
2018-12-31T00:11:59.514Z,98543.48
2018-12-31T00:14:29.912Z,98547.16
2018-12-31T00:17:00.652Z,98550.89
2018-12-31T00:19:31.048Z,98546.80
2018-12-31T00:22:01.894Z,98547.23
2018-12-31T00:24:34.772Z,98545.95
2018-12-31T00:27:05.074Z,98538.61
2018-12-31T00:29:35.582Z,98556.62
2018-12-31T00:32:06.198Z,98555.73
2018-12-31T00:34:37.276Z,98546.03
2018-12-31T00:37:08.079Z,98552.33
2018-12-31T00:39:39.684Z,98551.13
2018-12-31T00:42:11.053Z,98555.84
2018-12-31T00:44:41.314Z,98555.66
2018-12-31T00:47:11.643Z,98555.34
2018-12-31T00:49:42.363Z,98553.43
2018-12-31T00:52:13.214Z,98551.19
2018-12-31T00:54:43.442Z,98550.38
2018-12-31T00:57:13.917Z,98556.11
2018-12-31T00:59:44.290Z,98553.56
2018-12-31T01:02:14.702Z,98554.38
2018-12-31T01:04:45.184Z,98553.25
2018-12-31T01:07:15.783Z,98549.27
2018-12-31T01:09:46.380Z,98542.71
2018-12-31T01:12:16.877Z,98547.89
2018-12-31T01:14:47.360Z,98544.38
2018-12-31T01:17:18.128Z,98542.71
2018-12-31T01:19:48.442Z,98544.77
2018-12-31T01:22:19.110Z,98547.63
2018-12-31T01:24:49.940Z,98551.77
2018-12-31T01:27:20.290Z,98554.33
2018-12-31T01:29:51.962Z,98552.27
2018-12-31T01:32:22.635Z,98565.91
2018-12-31T01:34:52.972Z,98555.47
2018-12-31T01:37:23.396Z,98564.72
2018-12-31T01:39:53.745Z,98557.52
2018-12-31T01:42:23.978Z,98564.33
2018-12-31T01:44:54.502Z,98551.14
2018-12-31T01:47:24.922Z,98547.31
2018-12-31T01:49:55.256Z,98561.34
2018-12-31T01:52:26.019Z,98560.08
2018-12-31T01:54:56.324Z,98558.33
2018-12-31T01:57:26.587Z,98560.88
2018-12-31T01:59:57.078Z,98559.11
2018-12-31T02:02:27.470Z,98567.27
2018-12-31T02:04:58.087Z,98566.45
2018-12-31T02:07:28.495Z,98568.23
2018-12-31T02:09:58.662Z,98571.28
2018-12-31T02:12:29.254Z,98571.28
2018-12-31T02:14:59.759Z,98569.69
2018-12-31T02:17:30.104Z,98566.33
2018-12-31T02:20:00.270Z,98559.48
2018-12-31T02:22:30.596Z,98556.92
2018-12-31T02:25:01.034Z,98557.89
2018-12-31T02:27:31.894Z,98550.70
2018-12-31T02:30:02.150Z,98550.70
2018-12-31T02:32:32.505Z,98544.81
2018-12-31T02:35:02.860Z,98541.88
2018-12-31T02:37:33.343Z,98546.66
2018-12-31T02:40:03.791Z,98548.33
2018-12-31T02:42:34.306Z,98541.30
2018-12-31T02:45:05.016Z,98541.38
2018-12-31T02:47:35.538Z,98540.48
2018-12-31T02:50:06.541Z,98540.48
2018-12-31T02:52:37.776Z,98546.41
2018-12-31T02:55:08.114Z,98541.12
2018-12-31T02:57:38.550Z,98540.23
2018-12-31T03:00:09.119Z,98534.55
2018-12-31T03:02:39.505Z,98537.11
2018-12-31T03:05:10.109Z,98545.08
2018-12-31T03:07:41.374Z,98532.63
2018-12-31T03:10:12.229Z,98535.19
2018-12-31T03:12:42.951Z,98535.05
2018-12-31T03:15:13.786Z,98537.42
2018-12-31T03:17:44.028Z,98539.97
2018-12-31T03:20:14.391Z,98538.81
2018-12-31T03:22:45.195Z,98528.48
2018-12-31T03:25:19.188Z,98534.98
2018-12-31T03:27:49.588Z,98528.48
2018-12-31T03:30:20.350Z,98524.98
2018-12-31T03:32:50.665Z,98522.04
2018-12-31T03:35:20.995Z,98518.78
2018-12-31T03:37:51.722Z,98502.13
2018-12-31T03:40:22.298Z,98494.93
2018-12-31T03:42:52.675Z,98501.70
2018-12-31T03:45:23.516Z,98502.66
2018-12-31T03:47:53.909Z,98507.77
2018-12-31T03:50:24.299Z,98503.94
2018-12-31T03:52:54.622Z,98495.00
2018-12-31T03:55:25.053Z,98491.67
2018-12-31T03:57:55.423Z,98489.90
2018-12-31T04:00:25.927Z,98500.53
2018-12-31T04:02:56.253Z,98494.61
2018-12-31T04:05:26.617Z,98486.39
2018-12-31T04:07:57.274Z,98484.33
2018-12-31T04:10:27.919Z,98483.38
2018-12-31T04:12:58.547Z,98485.11
2018-12-31T04:15:29.458Z,98494.05
2018-12-31T04:17:59.714Z,98495.31
2018-12-31T04:20:30.011Z,98496.52
2018-12-31T04:23:00.493Z,98490.07
2018-12-31T04:25:30.821Z,98486.56
2018-12-31T04:28:01.045Z,98485.17
2018-12-31T04:30:31.431Z,98498.32
2018-12-31T04:33:01.930Z,98507.44
2018-12-31T04:35:32.517Z,98511.89
2018-12-31T04:38:03.083Z,98519.94
2018-12-31T04:40:33.477Z,98512.36
2018-12-31T04:43:03.822Z,98516.11
2018-12-31T04:45:34.383Z,98508.70
2018-12-31T04:48:04.755Z,98504.45
2018-12-31T04:50:34.968Z,98499.34
2018-12-31T04:53:05.386Z,98502.91
2018-12-31T04:55:44.025Z,98508.52
2018-12-31T04:58:08.237Z,98511.45
2018-12-31T05:00:38.766Z,98506.92
2018-12-31T05:03:09.343Z,98507.81
2018-12-31T05:05:39.687Z,98524.00
2018-12-31T05:08:10.113Z,98545.69
2018-12-31T05:10:40.545Z,98539.57
2018-12-31T05:13:10.955Z,98535.58
2018-12-31T05:15:41.618Z,98542.27
2018-12-31T05:18:12.423Z,98542.19
2018-12-31T05:20:43.065Z,98530.53
2018-12-31T05:23:13.467Z,98530.53
2018-12-31T05:25:43.808Z,98529.18
2018-12-31T05:28:14.274Z,98535.56
2018-12-31T05:30:46.044Z,98535.48
2018-12-31T05:33:16.265Z,98530.27
2018-12-31T05:35:46.695Z,98516.94
2018-12-31T05:38:17.023Z,98517.26
2018-12-31T05:40:47.468Z,98525.09
2018-12-31T05:43:18.036Z,98535.61
2018-12-31T05:45:48.422Z,98549.25
2018-12-31T05:48:19.166Z,98558.76
2018-12-31T05:50:49.478Z,98557.17
2018-12-31T05:53:20.381Z,98551.75
2018-12-31T05:55:50.773Z,98561.95
2018-12-31T05:58:21.192Z,98555.08
2018-12-31T06:00:51.503Z,98523.50
2018-12-31T06:03:23.410Z,98490.01
2018-12-31T06:05:53.896Z,98494.16
2018-12-31T06:08:24.249Z,98515.41
2018-12-31T06:10:54.539Z,98529.31
2018-12-31T06:13:24.891Z,98534.65
2018-12-31T06:15:55.167Z,98529.05
2018-12-31T06:18:25.494Z,98530.13
2018-12-31T06:20:56.233Z,98530.13
2018-12-31T06:23:27.503Z,98532.25
2018-12-31T06:25:58.183Z,98533.95
2018-12-31T06:28:28.860Z,98541.17
2018-12-31T06:30:59.539Z,98548.13
2018-12-31T06:33:30.016Z,98555.89
2018-12-31T06:36:00.302Z,98557.56
2018-12-31T06:38:30.793Z,98570.89
2018-12-31T06:41:01.110Z,98561.77
2018-12-31T06:43:31.433Z,98549.72
2018-12-31T06:46:01.717Z,98534.55
2018-12-31T06:48:32.045Z,98534.65
2018-12-31T06:51:02.392Z,98545.63
2018-12-31T06:53:32.776Z,98556.54
2018-12-31T06:56:03.561Z,98556.65
2018-12-31T06:58:34.447Z,98555.63
2018-12-31T07:01:04.780Z,98562.09
2018-12-31T07:03:35.202Z,98571.98
2018-12-31T07:06:05.931Z,98565.14
2018-12-31T07:08:36.300Z,98577.08
2018-12-31T07:11:06.654Z,98577.78
2018-12-31T07:13:36.957Z,98572.61
2018-12-31T07:16:07.363Z,98573.06
2018-12-31T07:18:37.782Z,98578.67
2018-12-31T07:21:08.405Z,98577.97
2018-12-31T07:23:38.674Z,98584.86
2018-12-31T07:26:08.933Z,98588.38
2018-12-31T07:28:39.263Z,98581.53
2018-12-31T07:31:09.786Z,98581.53
2018-12-31T07:33:40.669Z,98576.24
2018-12-31T07:36:11.598Z,98584.28
2018-12-31T07:38:42.308Z,98582.16
2018-12-31T07:41:15.718Z,98573.62
2018-12-31T07:43:46.096Z,98575.47
2018-12-31T07:46:16.449Z,98578.02
2018-12-31T07:48:46.774Z,98581.03
2018-12-31T07:51:17.328Z,98579.76
2018-12-31T07:53:47.548Z,98576.89
2018-12-31T07:56:18.019Z,98590.46
2018-12-31T07:58:48.218Z,98592.20
2018-12-31T08:01:28.472Z,98597.41
2018-12-31T08:03:58.861Z,98594.05
2018-12-31T08:06:29.080Z,98592.89
2018-12-31T08:08:59.466Z,98596.48
2018-12-31T08:11:29.927Z,98589.91
2018-12-31T08:14:00.519Z,98593.46
2018-12-31T08:16:31.198Z,98592.57
2018-12-31T08:19:01.651Z,98600.56
2018-12-31T08:21:32.621Z,98589.39
2018-12-31T08:24:03.667Z,98582.52
2018-12-31T08:26:34.304Z,98579.97
2018-12-31T08:29:04.716Z,98587.62
2018-12-31T08:31:35.428Z,98579.89
2018-12-31T08:34:05.853Z,98580.39
2018-12-31T08:36:36.640Z,98585.07
2018-12-31T08:39:09.051Z,98586.07
2018-12-31T08:41:39.611Z,98594.38
2018-12-31T08:44:09.988Z,98601.64
2018-12-31T08:46:40.723Z,98598.28
2018-12-31T08:49:11.558Z,98595.15
2018-12-31T08:51:42.340Z,98597.23
2018-12-31T08:54:13.222Z,98608.98
2018-12-31T08:56:43.833Z,98610.83
2018-12-31T08:59:14.896Z,98613.77
2018-12-31T09:01:45.462Z,98610.52
2018-12-31T09:04:15.996Z,98607.34
2018-12-31T09:06:46.848Z,98599.69
2018-12-31T09:09:17.256Z,98601.42
2018-12-31T09:11:47.901Z,98599.05
2018-12-31T09:14:18.773Z,98599.69
2018-12-31T09:16:49.942Z,98596.19
2018-12-31T09:19:21.097Z,98597.46
2018-12-31T09:21:52.150Z,98592.93
2018-12-31T09:24:22.434Z,98587.18
2018-12-31T09:26:52.790Z,98589.91
2018-12-31T09:29:23.787Z,98568.86
2018-12-31T09:31:54.269Z,98564.22
2018-12-31T09:34:24.979Z,98575.50
2018-12-31T09:36:55.686Z,98571.56
2018-12-31T09:39:26.188Z,98570.33
2018-12-31T09:41:56.869Z,98578.20
2018-12-31T09:44:28.195Z,98575.19
2018-12-31T09:46:58.762Z,98572.70
2018-12-31T09:49:29.329Z,98566.89
2018-12-31T09:52:00.168Z,98570.54
2018-12-31T09:54:31.622Z,98581.56
2018-12-31T09:57:02.224Z,98589.61
2018-12-31T09:59:33.527Z,98585.97
2018-12-31T10:02:03.951Z,98588.02
2018-12-31T10:04:34.673Z,98593.31
2018-12-31T10:07:05.824Z,98599.13
2018-12-31T10:09:36.264Z,98600.77
2018-12-31T10:12:06.614Z,98601.73
2018-12-31T10:14:37.426Z,98594.00
2018-12-31T10:17:08.104Z,98591.19
2018-12-31T10:19:39.160Z,98598.04
2018-12-31T10:22:10.298Z,98596.38
2018-12-31T10:24:40.971Z,98593.50
2018-12-31T10:27:11.872Z,98595.17
2018-12-31T10:29:42.641Z,98597.66
2018-12-31T10:32:13.611Z,98595.03
2018-12-31T10:34:44.377Z,98595.81
2018-12-31T10:37:15.133Z,98589.53
2018-12-31T10:39:45.729Z,98589.53
2018-12-31T10:42:16.390Z,98584.50
2018-12-31T10:44:47.135Z,98574.35
2018-12-31T10:47:17.596Z,98573.96
2018-12-31T10:49:47.944Z,98571.34
2018-12-31T10:52:18.403Z,98565.12
2018-12-31T10:54:48.919Z,98561.37
2018-12-31T10:57:19.545Z,98559.14
2018-12-31T10:59:50.355Z,98560.09
2018-12-31T11:02:23.254Z,98558.42
2018-12-31T11:04:53.911Z,98559.77
2018-12-31T11:07:24.781Z,98563.22
2018-12-31T11:09:55.427Z,98557.22
2018-12-31T11:12:26.096Z,98553.39
2018-12-31T11:14:56.781Z,98546.22
2018-12-31T11:17:27.232Z,98547.50
2018-12-31T11:19:57.886Z,98544.52
2018-12-31T11:22:28.647Z,98540.86
2018-12-31T11:24:59.237Z,98533.03
2018-12-31T11:27:31.132Z,98538.70
2018-12-31T11:30:02.387Z,98529.94
2018-12-31T11:32:33.181Z,98534.80
2018-12-31T11:35:03.838Z,98529.12
2018-12-31T11:37:35.026Z,98542.06
2018-12-31T11:40:06.145Z,98532.98
2018-12-31T11:42:36.537Z,98531.14
2018-12-31T11:45:07.679Z,98528.66
2018-12-31T11:47:38.374Z,98522.37
2018-12-31T11:50:08.951Z,98520.53
2018-12-31T11:52:39.364Z,98521.66
2018-12-31T11:55:09.850Z,98523.00
2018-12-31T11:57:40.088Z,98521.87
2018-12-31T12:00:11.204Z,98516.55
2018-12-31T12:02:41.509Z,98507.89
2018-12-31T12:05:11.820Z,98512.95
2018-12-31T12:07:42.947Z,98514.47
2018-12-31T12:10:13.329Z,98515.90
2018-12-31T12:12:43.743Z,98517.64
2018-12-31T12:15:14.292Z,98510.80
2018-12-31T12:17:44.612Z,98504.86
2018-12-31T12:20:15.512Z,98502.55
2018-12-31T12:22:45.915Z,98504.25
2018-12-31T12:25:16.755Z,98499.20
2018-12-31T12:27:47.109Z,98501.38
2018-12-31T12:30:17.493Z,98497.44
2018-12-31T12:32:47.983Z,98495.94
2018-12-31T12:35:18.745Z,98497.45
2018-12-31T12:37:49.021Z,98493.78
2018-12-31T12:40:19.669Z,98493.36
2018-12-31T12:42:51.283Z,98493.69
2018-12-31T12:45:23.401Z,98501.13
2018-12-31T12:47:54.075Z,98498.48
2018-12-31T12:50:24.547Z,98502.31
2018-12-31T12:52:56.209Z,98497.05
2018-12-31T12:55:26.955Z,98499.73
2018-12-31T12:57:57.782Z,98498.85
2018-12-31T13:00:28.305Z,98500.00
2018-12-31T13:02:59.380Z,98500.06
2018-12-31T13:05:30.023Z,98494.56
2018-12-31T13:08:00.430Z,98503.02
2018-12-31T13:10:30.980Z,98500.86
2018-12-31T13:13:06.641Z,98502.77
2018-12-31T13:15:38.286Z,98503.55
2018-12-31T13:18:08.957Z,98508.89
2018-12-31T13:20:39.461Z,98496.11
2018-12-31T13:23:10.150Z,98507.39
2018-12-31T13:25:40.955Z,98505.06
2018-12-31T13:28:11.259Z,98497.32
2018-12-31T13:30:41.629Z,98504.11
2018-12-31T13:33:12.257Z,98502.56
2018-12-31T13:35:42.940Z,98506.63
2018-12-31T13:38:13.320Z,98512.08
2018-12-31T13:40:43.957Z,98513.84
2018-12-31T13:43:14.649Z,98513.03
2018-12-31T13:45:45.156Z,98512.18
2018-12-31T13:48:16.155Z,98510.70
2018-12-31T13:50:46.476Z,98517.09
2018-12-31T13:53:17.182Z,98519.03
2018-12-31T13:55:47.855Z,98513.26
2018-12-31T13:58:18.320Z,98522.20
2018-12-31T14:00:48.787Z,98519.19
2018-12-31T14:03:19.777Z,98519.12
2018-12-31T14:05:50.232Z,98521.36
2018-12-31T14:08:20.574Z,98530.21
2018-12-31T14:10:51.413Z,98529.42
2018-12-31T14:13:21.714Z,98526.60
2018-12-31T14:15:52.468Z,98516.80
2018-12-31T14:18:23.357Z,98508.97
2018-12-31T14:20:54.351Z,98514.53
2018-12-31T14:23:24.903Z,98520.47
2018-12-31T14:25:55.245Z,98518.93
2018-12-31T14:28:25.757Z,98521.03
2018-12-31T14:30:56.904Z,98531.82
2018-12-31T14:33:27.647Z,98527.55
2018-12-31T14:35:58.601Z,98526.38
2018-12-31T14:38:29.291Z,98539.63
2018-12-31T14:41:00.091Z,98535.56
2018-12-31T14:43:30.794Z,98527.06
2018-12-31T14:46:01.476Z,98538.91
2018-12-31T14:48:32.344Z,98539.46
2018-12-31T14:51:03.161Z,98542.02
2018-12-31T14:53:33.611Z,98540.91
2018-12-31T14:56:04.025Z,98543.86
2018-12-31T14:58:34.442Z,98534.18
2018-12-31T15:01:05.373Z,98546.91
2018-12-31T15:03:35.989Z,98547.76
2018-12-31T15:06:06.722Z,98552.97
2018-12-31T15:08:37.348Z,98554.16
2018-12-31T15:11:07.961Z,98558.65
2018-12-31T15:13:38.314Z,98558.94
2018-12-31T15:16:08.781Z,98566.62
2018-12-31T15:18:40.533Z,98568.06
2018-12-31T15:21:11.210Z,98563.77
2018-12-31T15:23:41.594Z,98570.30
2018-12-31T15:26:12.374Z,98560.39
2018-12-31T15:28:43.239Z,98560.87
2018-12-31T15:31:13.820Z,98560.61
2018-12-31T15:33:44.445Z,98559.34
2018-12-31T15:36:15.410Z,98563.11
2018-12-31T15:38:46.283Z,98564.39
2018-12-31T15:41:17.539Z,98567.27
2018-12-31T15:43:48.387Z,98564.72
2018-12-31T15:46:20.294Z,98567.61
2018-12-31T15:48:51.174Z,98564.55
2018-12-31T15:51:21.811Z,98572.23
2018-12-31T15:53:53.056Z,98565.50
2018-12-31T15:56:23.625Z,98566.23
2018-12-31T15:58:54.110Z,98571.44
2018-12-31T16:01:25.067Z,98579.12
2018-12-31T16:03:55.745Z,98576.85
2018-12-31T16:06:26.541Z,98577.34
2018-12-31T16:08:57.172Z,98589.02
2018-12-31T16:11:28.073Z,98591.59
2018-12-31T16:13:58.541Z,98588.20
2018-12-31T16:16:29.138Z,98586.92
2018-12-31T16:19:00.046Z,98577.19
2018-12-31T16:21:30.835Z,98570.30
2018-12-31T16:24:01.683Z,98567.73
2018-12-31T16:26:31.949Z,98566.00
2018-12-31T16:29:02.455Z,98564.72
2018-12-31T16:31:33.077Z,98566.39
2018-12-31T16:34:03.695Z,98562.16
2018-12-31T16:36:34.100Z,98564.29
2018-12-31T16:39:06.451Z,98568.23
2018-12-31T16:41:36.762Z,98561.73
2018-12-31T16:44:07.153Z,98565.57
2018-12-31T16:46:38.179Z,98571.57
2018-12-31T16:49:10.238Z,98580.07
2018-12-31T16:51:40.559Z,98581.41
2018-12-31T16:54:11.318Z,98580.53
2018-12-31T16:56:42.019Z,98586.86
2018-12-31T16:59:12.368Z,98584.23
2018-12-31T17:01:43.070Z,98580.86
2018-12-31T17:04:13.508Z,98579.19
2018-12-31T17:06:44.215Z,98582.20
2018-12-31T17:09:14.920Z,98587.64
2018-12-31T17:11:45.657Z,98578.79
2018-12-31T17:14:16.023Z,98583.48
2018-12-31T17:16:46.350Z,98581.91
2018-12-31T17:19:16.613Z,98584.47
2018-12-31T17:21:47.625Z,98581.97
2018-12-31T17:24:18.014Z,98584.98
2018-12-31T17:26:48.496Z,98579.09
2018-12-31T17:29:19.777Z,98583.87
2018-12-31T17:31:50.087Z,98588.66
2018-12-31T17:34:20.541Z,98581.48
2018-12-31T17:36:51.327Z,98577.64
2018-12-31T17:39:21.611Z,98581.48
2018-12-31T17:41:51.982Z,98576.03
2018-12-31T17:44:22.738Z,98585.38
2018-12-31T17:46:53.068Z,98574.27
2018-12-31T17:49:23.266Z,98577.15
2018-12-31T17:51:55.915Z,98584.98
2018-12-31T17:54:26.903Z,98586.50
2018-12-31T17:56:57.342Z,98593.32
2018-12-31T17:59:29.093Z,98589.88
2018-12-31T18:01:59.546Z,98588.66
2018-12-31T18:04:29.780Z,98598.25
2018-12-31T18:07:00.125Z,98605.46
2018-12-31T18:09:30.346Z,98610.41
2018-12-31T18:12:00.710Z,98620.98
2018-12-31T18:14:30.924Z,98610.74
2018-12-31T18:17:01.295Z,98614.58
2018-12-31T18:19:32.140Z,98606.91
2018-12-31T18:22:02.526Z,98602.11
2018-12-31T18:24:32.923Z,98614.91
2018-12-31T18:27:03.342Z,98616.02
2018-12-31T18:29:37.111Z,98619.41
2018-12-31T18:32:07.499Z,98623.38
2018-12-31T18:34:37.955Z,98619.53
2018-12-31T18:37:08.557Z,98613.56
2018-12-31T18:39:38.765Z,98617.30
2018-12-31T18:42:09.121Z,98618.25
2018-12-31T18:44:39.489Z,98610.58
2018-12-31T18:47:10.254Z,98620.81
2018-12-31T18:49:40.801Z,98615.30
2018-12-31T18:52:11.484Z,98625.64
2018-12-31T18:54:41.954Z,98631.61
2018-12-31T18:57:12.283Z,98634.10
2018-12-31T18:59:42.635Z,98639.72
2018-12-31T19:02:12.909Z,98640.99
2018-12-31T19:04:43.412Z,98633.71
2018-12-31T19:07:14.190Z,98637.05
2018-12-31T19:09:44.487Z,98642.17
2018-12-31T19:12:14.819Z,98654.41
2018-12-31T19:14:45.115Z,98657.46
2018-12-31T19:17:15.508Z,98659.45
2018-12-31T19:19:45.968Z,98652.67
2018-12-31T19:22:16.360Z,98641.88
2018-12-31T19:24:46.693Z,98646.11
2018-12-31T19:27:17.508Z,98635.54
2018-12-31T19:29:47.841Z,98630.03
2018-12-31T19:32:18.719Z,98628.36
2018-12-31T19:34:49.202Z,98627.14
2018-12-31T19:37:19.579Z,98618.58
2018-12-31T19:39:49.875Z,98613.47
2018-12-31T19:42:20.150Z,98614.41
2018-12-31T19:44:51.328Z,98615.70
2018-12-31T19:47:21.624Z,98611.79
2018-12-31T19:49:52.181Z,98613.33
2018-12-31T19:52:22.355Z,98621.80
2018-12-31T19:54:53.015Z,98622.75
2018-12-31T19:57:23.199Z,98625.70
2018-12-31T19:59:53.629Z,98625.41
2018-12-31T20:02:24.287Z,98621.47
2018-12-31T20:04:54.691Z,98617.80
2018-12-31T20:07:24.916Z,98624.19
2018-12-31T20:09:55.197Z,98619.41
2018-12-31T20:12:25.562Z,98616.02
2018-12-31T20:14:55.869Z,98617.23
2018-12-31T20:17:26.744Z,98615.56
2018-12-31T20:19:57.170Z,98609.39
2018-12-31T20:22:27.441Z,98611.56
2018-12-31T20:24:57.726Z,98614.94
2018-12-31T20:27:28.073Z,98613.16
2018-12-31T20:29:58.357Z,98614.67
2018-12-31T20:32:28.632Z,98617.07
2018-12-31T20:34:58.856Z,98619.73
2018-12-31T20:37:29.506Z,98620.13
2018-12-31T20:39:59.846Z,98618.35
2018-12-31T20:42:30.226Z,98620.19
2018-12-31T20:45:00.621Z,98614.35
2018-12-31T20:47:30.926Z,98621.31
2018-12-31T20:50:01.738Z,98626.89
2018-12-31T20:52:32.153Z,98614.03
2018-12-31T20:55:02.588Z,98613.92
2018-12-31T20:57:32.891Z,98615.92
2018-12-31T21:00:03.298Z,98606.91
2018-12-31T21:02:33.952Z,98616.25
2018-12-31T21:05:04.395Z,98609.80
2018-12-31T21:07:35.149Z,98600.34
2018-12-31T21:10:07.418Z,98605.06
2018-12-31T21:12:37.789Z,98607.00
2018-12-31T21:15:08.186Z,98610.84
2018-12-31T21:17:38.820Z,98610.28
2018-12-31T21:20:09.958Z,98615.89
2018-12-31T21:22:40.363Z,98614.61
2018-12-31T21:25:10.718Z,98609.95
2018-12-31T21:27:41.367Z,98605.39
2018-12-31T21:30:12.912Z,98613.00
2018-12-31T21:32:43.206Z,98614.28
2018-12-31T21:35:13.790Z,98605.79
2018-12-31T21:37:44.437Z,98602.05
2018-12-31T21:40:14.723Z,98604.67
2018-12-31T21:42:45.401Z,98602.44
2018-12-31T21:45:15.911Z,98602.84
2018-12-31T21:47:46.312Z,98600.84
2018-12-31T21:50:16.615Z,98603.89
2018-12-31T21:52:47.804Z,98592.66
2018-12-31T21:55:18.168Z,98596.21
2018-12-31T21:57:48.558Z,98595.39
2018-12-31T22:00:18.884Z,98585.42
2018-12-31T22:02:56.808Z,98590.53
2018-12-31T22:05:21.842Z,98586.27
2018-12-31T22:07:52.211Z,98590.60
2018-12-31T22:10:22.548Z,98594.93
2018-12-31T22:12:53.439Z,98594.11
2018-12-31T22:15:23.684Z,98591.87
2018-12-31T22:17:53.938Z,98593.16
2018-12-31T22:20:24.241Z,98590.44
2018-12-31T22:22:55.295Z,98594.38
2018-12-31T22:25:25.626Z,98586.59
2018-12-31T22:27:56.302Z,98587.88
2018-12-31T22:30:26.625Z,98590.04
2018-12-31T22:32:57.797Z,98588.37
2018-12-31T22:35:28.235Z,98589.09
2018-12-31T22:37:58.481Z,98586.92
2018-12-31T22:40:28.896Z,98588.70
2018-12-31T22:42:59.204Z,98586.03
2018-12-31T22:45:29.931Z,98585.97
2018-12-31T22:48:00.469Z,98576.63
2018-12-31T22:50:30.817Z,98582.63
2018-12-31T22:53:01.077Z,98583.91
2018-12-31T22:55:31.322Z,98578.79
2018-12-31T22:58:01.598Z,98580.46
2018-12-31T23:00:33.061Z,98569.02
2018-12-31T23:03:03.438Z,98579.34
2018-12-31T23:05:39.790Z,98575.41
2018-12-31T23:08:10.386Z,98580.20
2018-12-31T23:10:40.927Z,98581.09
2018-12-31T23:13:11.202Z,98569.17
2018-12-31T23:15:41.689Z,98574.30
2018-12-31T23:18:11.932Z,98570.63
2018-12-31T23:20:43.006Z,98569.24
2018-12-31T23:23:13.408Z,98577.80
